Allagash, ME

9:23 AM EDT on July 12, 2014 (GMT -0400)
Apex Wx (KMEFORTK7) Elev 541 ft | 47.25 °N, 68.58 °W | Change Station

Current weather conditions updated 20 seconds ago

Clear
Clear
70.2 °F
Feels Like 75 °F
N
2.0
Wind Variable Wind from North
Gusts 4.0 mph

Today is forecast to be nearly the same temperature as yesterday.

Today
High -- | Low -- °F
--% Chance of Precip.
Yesterday
High -- | Low -- °F
Precip. -- in
4:53 AM 8:30 PM
Full, 100% visible
Pressure 30.14 in
Visibility 10.0 miles
Clouds Clear
Heat Index 75 °F
Dew Point 57 °F
Humidity 64%
Rainfall 0.00 in
Snow Depth Not available.
UV 5 out of 12
Pollen 5.40 out of 12
Ozone Good
PM2.5 Good
Flu Activity Regional
METAR KFVE 121253Z AUTO 21004KT 10SM CLR 18/13 A3015 RMK AO2 SLP207 T01830128

More Conditions Fewer Conditions

Pressure 30.14 in
Visibility 10.0 miles
Clouds Clear
Heat Index 75 °F
Dew Point 57 °F
Humidity 64%
Rainfall 0.00 in
Snow Depth Not available.
UV 5 out of 12
Pollen 5.40 out of 12
Ozone Good
PM2.5 Good
Flu Activity Regional
METAR KFVE 121253Z AUTO 21004KT 10SM CLR 18/13 A3015 RMK AO2 SLP207 T01830128

More Conditions Fewer Conditions

10-Day Weather Forecast

Almanac

Astronomy

Jul. 12, 2014 Rise Set
Actual Time 4:53 AM EDT 8:30 PM EDT
Civil Twilight 4:14 AM EDT 9:08 PM EDT
Nautical Twilight 3:22 AM EDT 10:00 PM EDT
Astronomical Twilight 2:11 AM EDT 11:09 PM EDT
Moon 8:21 PM EDT 5:14 AM EDT
Length of Visible Light 16h 54m
Length of Day
15h 37m
Tomorrow will be 1m 38s shorter.
Full, 100% of the Moon is Illuminated
Today
Full
Jul 18
Last Quarter
Jul 26
New
Aug 3
First Quarter
Aug 10
Full

Today's Extremes

State Highs State Lows

Community

WunderPhotos

Upload Photos

1,732,818 photos uploaded!

WunderBlogs® & News

Nearby

Air Quality

  Air Quality AQ Index Pollutant
Yesterday Good
PM2.5
Yesterday Good
OZONE
Current Good
PM2.5
Current Good
OZONE
Saturday Good
OZONE
Saturday Good
PM2.5
Sunday Moderate
PM2.5
Sunday Good
OZONE
Monday Moderate
PM2.5
Monday Good
OZONE
Tuesday Good
OZONE
Tuesday Good
PM2.5

Snow Depth

Station Depth Elevation
No new snow has been reported.

Earthquake Activity

City Distance Mag. Time & Date
No recent earthquake activity has been reported nearby.
Minimum magnitude displayed is 2.5.

Coastal Water Temperatures

Place Temperature
No Stations Reporting

Nearby Weather Stations

Station Location Temp. Heat Index Dew Point Humidity Wind Precip. Elev Updated Type
HADS ST. JOHN RIVER NR DICKEY , Saint Francis, ME 62 °F - - - North  at  - 0.00 in / hr 943 ft 8:00 AM EDT MADIS
MesoWest Fort Kent , Fort Kent, ME 62 °F - -32 °F - WSW  at  8 mph 0.00 in / hr 658 ft 8:02 AM EDT MADIS
Apex Wx, Fort Kent, ME 70.2 °F 75 °F 57 °F 64% North  at  2.0 mph 0.00 in / hr 541 ft 9:22 AM EDT Rapid Fire

Show More Stations Show Fewer Stations